Westerlo, NY (12193)

6:51 AM EDT on July 29, 2016 (GMT -0400)
Remley Lane - 1760' | | Change Station

Elev 1760 ft 42.58 °N, 74.07 °W | Updated 41 seconds ago

Overcast
Overcast
65.0 °F
Feels Like 65.0 °F
N
1.0
Wind Variable Wind from North
Gusts 2.0 mph

Today
High -- | Low -- °F
--% Chance of Precip.
Yesterday
High -- | Low -- °F
Precip. -- in
Pressure 29.86 in
Visibility 7.0 miles
Clouds Scattered Clouds 1500 ft
Scattered Clouds 5000 ft
Mostly Cloudy 12000 ft
Overcast 19000 ft
Dew Point 64 °F
Humidity 98%
Rainfall 0.00 in
Snow Depth Not available.
5:45 AM 8:18 PM
Waning Crescent, 23% visible
METAR KALB 290951Z 01003KT 7SM SCT015 SCT050 BKN120 OVC190 21/19 A2986 RMK AO2 RAE32 SLP111 VCSH E P0001 T02060194
Pressure 29.86 in
Visibility 7.0 miles
Clouds Scattered Clouds 1500 ft
Scattered Clouds 5000 ft
Mostly Cloudy 12000 ft
Overcast 19000 ft
Dew Point 64 °F
Humidity 98%
Rainfall 0.00 in
Snow Depth Not available.
5:45 AM 8:18 PM
Waning Crescent, 23% visible
METAR KALB 290951Z 01003KT 7SM SCT015 SCT050 BKN120 OVC190 21/19 A2986 RMK AO2 RAE32 SLP111 VCSH E P0001 T02060194

10-Day Weather Forecast

Almanac

Astronomy

Jul. 29, 2016 Rise Set
Actual Time
Civil Twilight
Nautical Twilight
Astronomical Twilight
Moon
Length of Visible Light
Length of Day
Tomorrow will be .
, % of the Moon is Illuminated

Today's Extremes

State Highs State Lows

Community

WunderPhotos

Upload Photos

1,928,311 photos uploaded!

WunderBlog® & News

Nearby

Air Quality

  Air Quality AQ Index Pollutant
Not available.

Snow Depth

Station Depth Elevation

Earthquake Activity

City Distance Mag. Time & Date
Minimum magnitude displayed is 2.5.

Coastal Water Temperatures

Place Temperature

Stations

Nearby Weather Stations

Station Location Temp. Windchill Dew Point Humidity Wind Precip. Elev Updated Type
                   

Watches & Warnings

There are currently no watches in effect.